Terminal Aerodrome Forecast
Issued by NWS

Home | Current Version | Previous Version | Text Only | Print | Product List | Glossary On
Versions: 1 2 3 4 5 6 7 8 9 10 11 12 13 14
000
FTUS46 KPDT 030533
TAFALW
TAF
KALW 030533Z 0306/0406 21009KT P6SM SCT080 BKN100 BKN200
     FM030900 18009KT P6SM SCT200
     FM031700 22008KT P6SM SCT200
     FM040300 14006KT P6SM SKC=

USA.gov is the U.S. government's official web portal to all federal, state and local government web resources and services.